Terminal Aerodrome Forecast
Issued by NWS Lake Charles, LA

Home | Current Version | Previous Version | Text Only | Print | Product List | Glossary On
Versions: 1 2 3 4 5 6 7 8 9 10 11 12 13 14 15 16 17 18 19
000
FTUS44 KLCH 291800 AAA
TAFBPT
TAF AMD
KBPT 291804Z 2918/3018 VRB05KT P6SM SCT045 BKN140
     FM300000 VRB03KT P6SM SCT060 BKN140
     FM300600 01003KT P6SM BKN060 BKN140=

USA.gov is the U.S. government's official web portal to all federal, state and local government web resources and services.